<?xml version="1.0" encoding="UTF-8" standalone="no" ?>
<gpx xmlns="http://www.topografix.com/GPX/1/1" xmlns:xsi="http://www.w3.org/2001/XMLSchema-instance" xsi:schemaLocation="http://www.topografix.com/GPX/1/1 http://www.topografix.com/GPX/1/1/gpx.xsd" version="1.1" creator="VisuGPX - https://www.visugpx.com">
  <metadata>
    <name>Davrinche20104</name>
    <desc><![CDATA[la partie 4 des itinéraires de repérage]]></desc>
  </metadata>
  <trk>
    <name><![CDATA[--Pulvérières-- OR-5380777:ser-jb08-l]]></name>
    <trkseg>
      <trkpt lat="45.88659" lon="2.91379">
        <ele>859</ele>
        <time>2015-10-20T08:25:02Z</time>
      </trkpt>
      <trkpt lat="45.88653" lon="2.91357">
        <ele>859</ele>
        <time>2015-10-20T08:27:02Z</time>
      </trkpt>
      <trkpt lat="45.88662" lon="2.91271">
        <ele>859</ele>
        <time>2015-10-20T08:29:02Z</time>
      </trkpt>
      <trkpt lat="45.88665" lon="2.91255">
        <ele>859</ele>
        <time>2015-10-20T08:31:02Z</time>
      </trkpt>
      <trkpt lat="45.88678" lon="2.91251">
        <ele>859</ele>
        <time>2015-10-20T08:33:02Z</time>
      </trkpt>
      <trkpt lat="45.88685" lon="2.91221">
        <ele>858</ele>
        <time>2015-10-20T08:35:02Z</time>
      </trkpt>
      <trkpt lat="45.88676" lon="2.91199">
        <ele>858</ele>
        <time>2015-10-20T08:37:02Z</time>
      </trkpt>
      <trkpt lat="45.88633" lon="2.91039">
        <ele>855</ele>
        <time>2015-10-20T08:39:02Z</time>
      </trkpt>
      <trkpt lat="45.88625" lon="2.90984">
        <ele>853</ele>
        <time>2015-10-20T08:41:02Z</time>
      </trkpt>
      <trkpt lat="45.88603" lon="2.90995">
        <ele>854</ele>
        <time>2015-10-20T08:43:02Z</time>
      </trkpt>
      <trkpt lat="45.88568" lon="2.91017">
        <ele>857</ele>
        <time>2015-10-20T08:45:02Z</time>
      </trkpt>
      <trkpt lat="45.8854" lon="2.91027">
        <ele>860</ele>
        <time>2015-10-20T08:47:02Z</time>
      </trkpt>
      <trkpt lat="45.88516" lon="2.91014">
        <ele>861</ele>
        <time>2015-10-20T08:49:02Z</time>
      </trkpt>
      <trkpt lat="45.88495" lon="2.90999">
        <ele>862</ele>
        <time>2015-10-20T08:51:02Z</time>
      </trkpt>
      <trkpt lat="45.8849" lon="2.90966">
        <ele>860</ele>
        <time>2015-10-20T08:53:02Z</time>
      </trkpt>
      <trkpt lat="45.88484" lon="2.90938">
        <ele>858</ele>
        <time>2015-10-20T08:55:02Z</time>
      </trkpt>
      <trkpt lat="45.88473" lon="2.9091">
        <ele>857</ele>
        <time>2015-10-20T08:57:02Z</time>
      </trkpt>
      <trkpt lat="45.88456" lon="2.9089">
        <ele>857</ele>
        <time>2015-10-20T08:59:02Z</time>
      </trkpt>
      <trkpt lat="45.88443" lon="2.90865">
        <ele>855</ele>
        <time>2015-10-20T09:01:02Z</time>
      </trkpt>
      <trkpt lat="45.88433" lon="2.90831">
        <ele>852</ele>
        <time>2015-10-20T09:03:02Z</time>
      </trkpt>
      <trkpt lat="45.88434" lon="2.90819">
        <ele>851</ele>
        <time>2015-10-20T09:05:02Z</time>
      </trkpt>
      <trkpt lat="45.88412" lon="2.90787">
        <ele>850</ele>
        <time>2015-10-20T09:07:02Z</time>
      </trkpt>
      <trkpt lat="45.88393" lon="2.90764">
        <ele>850</ele>
        <time>2015-10-20T09:09:02Z</time>
      </trkpt>
      <trkpt lat="45.88356" lon="2.90733">
        <ele>849</ele>
        <time>2015-10-20T09:11:02Z</time>
      </trkpt>
      <trkpt lat="45.88322" lon="2.90712">
        <ele>849</ele>
        <time>2015-10-20T09:13:02Z</time>
      </trkpt>
      <trkpt lat="45.88302" lon="2.90707">
        <ele>848</ele>
        <time>2015-10-20T09:15:02Z</time>
      </trkpt>
      <trkpt lat="45.88278" lon="2.90712">
        <ele>849</ele>
        <time>2015-10-20T09:17:02Z</time>
      </trkpt>
      <trkpt lat="45.88252" lon="2.90705">
        <ele>849</ele>
        <time>2015-10-20T09:19:02Z</time>
      </trkpt>
      <trkpt lat="45.88231" lon="2.9069">
        <ele>847</ele>
        <time>2015-10-20T09:21:02Z</time>
      </trkpt>
      <trkpt lat="45.88187" lon="2.90671">
        <ele>843</ele>
        <time>2015-10-20T09:23:02Z</time>
      </trkpt>
      <trkpt lat="45.88165" lon="2.90675">
        <ele>842</ele>
        <time>2015-10-20T09:25:02Z</time>
      </trkpt>
      <trkpt lat="45.88108" lon="2.90695">
        <ele>839</ele>
        <time>2015-10-20T09:27:02Z</time>
      </trkpt>
      <trkpt lat="45.8807" lon="2.90677">
        <ele>836</ele>
        <time>2015-10-20T09:29:02Z</time>
      </trkpt>
      <trkpt lat="45.88023" lon="2.90662">
        <ele>830</ele>
        <time>2015-10-20T09:31:02Z</time>
      </trkpt>
      <trkpt lat="45.88005" lon="2.90659">
        <ele>828</ele>
        <time>2015-10-20T09:33:02Z</time>
      </trkpt>
      <trkpt lat="45.87973" lon="2.90677">
        <ele>827</ele>
        <time>2015-10-20T09:35:02Z</time>
      </trkpt>
      <trkpt lat="45.87937" lon="2.90701">
        <ele>826</ele>
        <time>2015-10-20T09:37:02Z</time>
      </trkpt>
      <trkpt lat="45.87915" lon="2.90713">
        <ele>827</ele>
        <time>2015-10-20T09:39:02Z</time>
      </trkpt>
      <trkpt lat="45.87856" lon="2.9068">
        <ele>832</ele>
        <time>2015-10-20T09:41:02Z</time>
      </trkpt>
      <trkpt lat="45.87815" lon="2.9067">
        <ele>836</ele>
        <time>2015-10-20T09:43:02Z</time>
      </trkpt>
      <trkpt lat="45.87769" lon="2.90677">
        <ele>841</ele>
        <time>2015-10-20T09:45:02Z</time>
      </trkpt>
      <trkpt lat="45.87715" lon="2.9069">
        <ele>842</ele>
        <time>2015-10-20T09:47:02Z</time>
      </trkpt>
      <trkpt lat="45.8768" lon="2.90712">
        <ele>841</ele>
        <time>2015-10-20T09:49:02Z</time>
      </trkpt>
      <trkpt lat="45.87662" lon="2.90673">
        <ele>841</ele>
        <time>2015-10-20T09:51:02Z</time>
      </trkpt>
      <trkpt lat="45.87636" lon="2.90665">
        <ele>842</ele>
        <time>2015-10-20T09:53:02Z</time>
      </trkpt>
      <trkpt lat="45.87612" lon="2.9066">
        <ele>843</ele>
        <time>2015-10-20T09:55:02Z</time>
      </trkpt>
      <trkpt lat="45.87594" lon="2.90638">
        <ele>842</ele>
        <time>2015-10-20T09:57:02Z</time>
      </trkpt>
      <trkpt lat="45.87578" lon="2.90598">
        <ele>841</ele>
        <time>2015-10-20T09:59:02Z</time>
      </trkpt>
      <trkpt lat="45.87543" lon="2.90574">
        <ele>842</ele>
        <time>2015-10-20T10:01:02Z</time>
      </trkpt>
      <trkpt lat="45.87521" lon="2.90561">
        <ele>843</ele>
        <time>2015-10-20T10:03:02Z</time>
      </trkpt>
      <trkpt lat="45.87498" lon="2.90504">
        <ele>843</ele>
        <time>2015-10-20T10:05:02Z</time>
      </trkpt>
      <trkpt lat="45.87475" lon="2.9046">
        <ele>840</ele>
        <time>2015-10-20T10:07:02Z</time>
      </trkpt>
      <trkpt lat="45.87461" lon="2.90422">
        <ele>838</ele>
        <time>2015-10-20T10:09:02Z</time>
      </trkpt>
      <trkpt lat="45.87434" lon="2.90397">
        <ele>835</ele>
        <time>2015-10-20T10:11:02Z</time>
      </trkpt>
      <trkpt lat="45.87398" lon="2.90346">
        <ele>832</ele>
        <time>2015-10-20T10:13:02Z</time>
      </trkpt>
      <trkpt lat="45.87379" lon="2.9031">
        <ele>834</ele>
        <time>2015-10-20T10:15:02Z</time>
      </trkpt>
      <trkpt lat="45.87336" lon="2.90226">
        <ele>840</ele>
        <time>2015-10-20T10:17:02Z</time>
      </trkpt>
      <trkpt lat="45.87336" lon="2.902">
        <ele>841</ele>
        <time>2015-10-20T10:19:02Z</time>
      </trkpt>
      <trkpt lat="45.87362" lon="2.9018">
        <ele>840</ele>
        <time>2015-10-20T10:21:02Z</time>
      </trkpt>
      <trkpt lat="45.87384" lon="2.90173">
        <ele>840</ele>
        <time>2015-10-20T10:23:02Z</time>
      </trkpt>
      <trkpt lat="45.87416" lon="2.90169">
        <ele>839</ele>
        <time>2015-10-20T10:25:02Z</time>
      </trkpt>
      <trkpt lat="45.87475" lon="2.90142">
        <ele>835</ele>
        <time>2015-10-20T10:27:02Z</time>
      </trkpt>
      <trkpt lat="45.87502" lon="2.9012">
        <ele>834</ele>
        <time>2015-10-20T10:29:02Z</time>
      </trkpt>
      <trkpt lat="45.8752" lon="2.90103">
        <ele>832</ele>
        <time>2015-10-20T10:31:02Z</time>
      </trkpt>
      <trkpt lat="45.87547" lon="2.90071">
        <ele>831</ele>
        <time>2015-10-20T10:33:02Z</time>
      </trkpt>
      <trkpt lat="45.87563" lon="2.90056">
        <ele>830</ele>
        <time>2015-10-20T10:35:02Z</time>
      </trkpt>
      <trkpt lat="45.8759" lon="2.90045">
        <ele>828</ele>
        <time>2015-10-20T10:37:02Z</time>
      </trkpt>
      <trkpt lat="45.87619" lon="2.9005">
        <ele>824</ele>
        <time>2015-10-20T10:39:02Z</time>
      </trkpt>
      <trkpt lat="45.87644" lon="2.90052">
        <ele>821</ele>
        <time>2015-10-20T10:41:02Z</time>
      </trkpt>
      <trkpt lat="45.87667" lon="2.90043">
        <ele>819</ele>
        <time>2015-10-20T10:43:02Z</time>
      </trkpt>
      <trkpt lat="45.87679" lon="2.90038">
        <ele>817</ele>
        <time>2015-10-20T10:45:02Z</time>
      </trkpt>
      <trkpt lat="45.87705" lon="2.90018">
        <ele>812</ele>
        <time>2015-10-20T10:47:02Z</time>
      </trkpt>
      <trkpt lat="45.87718" lon="2.90006">
        <ele>809</ele>
        <time>2015-10-20T10:49:02Z</time>
      </trkpt>
      <trkpt lat="45.87731" lon="2.89959">
        <ele>809</ele>
        <time>2015-10-20T10:51:02Z</time>
      </trkpt>
      <trkpt lat="45.87744" lon="2.8992">
        <ele>809</ele>
        <time>2015-10-20T10:53:02Z</time>
      </trkpt>
      <trkpt lat="45.87763" lon="2.89896">
        <ele>807</ele>
        <time>2015-10-20T10:55:02Z</time>
      </trkpt>
      <trkpt lat="45.87774" lon="2.8987">
        <ele>807</ele>
        <time>2015-10-20T10:57:02Z</time>
      </trkpt>
      <trkpt lat="45.87786" lon="2.89826">
        <ele>807</ele>
        <time>2015-10-20T10:59:02Z</time>
      </trkpt>
      <trkpt lat="45.87801" lon="2.89776">
        <ele>803</ele>
        <time>2015-10-20T11:01:02Z</time>
      </trkpt>
      <trkpt lat="45.87809" lon="2.89738">
        <ele>800</ele>
        <time>2015-10-20T11:03:02Z</time>
      </trkpt>
      <trkpt lat="45.87821" lon="2.89694">
        <ele>795</ele>
        <time>2015-10-20T11:05:02Z</time>
      </trkpt>
      <trkpt lat="45.87791" lon="2.89662">
        <ele>797</ele>
        <time>2015-10-20T11:07:02Z</time>
      </trkpt>
      <trkpt lat="45.87777" lon="2.89631">
        <ele>796</ele>
        <time>2015-10-20T11:09:02Z</time>
      </trkpt>
      <trkpt lat="45.8775" lon="2.89584">
        <ele>793</ele>
        <time>2015-10-20T11:11:02Z</time>
      </trkpt>
      <trkpt lat="45.87718" lon="2.8956">
        <ele>794</ele>
        <time>2015-10-20T11:13:02Z</time>
      </trkpt>
      <trkpt lat="45.87675" lon="2.89546">
        <ele>796</ele>
        <time>2015-10-20T11:15:02Z</time>
      </trkpt>
      <trkpt lat="45.87625" lon="2.89503">
        <ele>793</ele>
        <time>2015-10-20T11:17:02Z</time>
      </trkpt>
      <trkpt lat="45.87608" lon="2.89541">
        <ele>801</ele>
        <time>2015-10-20T11:19:02Z</time>
      </trkpt>
      <trkpt lat="45.87599" lon="2.89587">
        <ele>810</ele>
        <time>2015-10-20T11:21:02Z</time>
      </trkpt>
      <trkpt lat="45.87579" lon="2.8959">
        <ele>813</ele>
        <time>2015-10-20T11:23:02Z</time>
      </trkpt>
      <trkpt lat="45.87541" lon="2.89591">
        <ele>815</ele>
        <time>2015-10-20T11:25:02Z</time>
      </trkpt>
      <trkpt lat="45.87499" lon="2.8961">
        <ele>821</ele>
        <time>2015-10-20T11:27:02Z</time>
      </trkpt>
      <trkpt lat="45.87461" lon="2.89646">
        <ele>826</ele>
        <time>2015-10-20T11:29:02Z</time>
      </trkpt>
      <trkpt lat="45.87439" lon="2.89667">
        <ele>828</ele>
        <time>2015-10-20T11:31:02Z</time>
      </trkpt>
      <trkpt lat="45.87428" lon="2.89692">
        <ele>831</ele>
        <time>2015-10-20T11:33:02Z</time>
      </trkpt>
      <trkpt lat="45.87391" lon="2.89677">
        <ele>829</ele>
        <time>2015-10-20T11:35:02Z</time>
      </trkpt>
      <trkpt lat="45.87331" lon="2.89667">
        <ele>828</ele>
        <time>2015-10-20T11:37:02Z</time>
      </trkpt>
      <trkpt lat="45.8729" lon="2.89677">
        <ele>833</ele>
        <time>2015-10-20T11:39:02Z</time>
      </trkpt>
      <trkpt lat="45.87255" lon="2.89696">
        <ele>838</ele>
        <time>2015-10-20T11:41:02Z</time>
      </trkpt>
      <trkpt lat="45.87232" lon="2.89671">
        <ele>836</ele>
        <time>2015-10-20T11:43:02Z</time>
      </trkpt>
      <trkpt lat="45.87201" lon="2.89647">
        <ele>833</ele>
        <time>2015-10-20T11:45:02Z</time>
      </trkpt>
      <trkpt lat="45.87178" lon="2.89626">
        <ele>831</ele>
        <time>2015-10-20T11:47:02Z</time>
      </trkpt>
      <trkpt lat="45.8716" lon="2.89593">
        <ele>826</ele>
        <time>2015-10-20T11:49:02Z</time>
      </trkpt>
      <trkpt lat="45.87137" lon="2.89582">
        <ele>824</ele>
        <time>2015-10-20T11:51:02Z</time>
      </trkpt>
      <trkpt lat="45.87127" lon="2.89567">
        <ele>822</ele>
        <time>2015-10-20T11:53:02Z</time>
      </trkpt>
      <trkpt lat="45.87118" lon="2.89534">
        <ele>818</ele>
        <time>2015-10-20T11:55:02Z</time>
      </trkpt>
      <trkpt lat="45.8711" lon="2.89522">
        <ele>817</ele>
        <time>2015-10-20T11:57:02Z</time>
      </trkpt>
      <trkpt lat="45.87154" lon="2.8948">
        <ele>809</ele>
        <time>2015-10-20T11:59:02Z</time>
      </trkpt>
      <trkpt lat="45.87202" lon="2.89454">
        <ele>803</ele>
        <time>2015-10-20T12:01:02Z</time>
      </trkpt>
      <trkpt lat="45.87246" lon="2.89436">
        <ele>799</ele>
        <time>2015-10-20T12:03:02Z</time>
      </trkpt>
      <trkpt lat="45.87292" lon="2.89425">
        <ele>795</ele>
        <time>2015-10-20T12:05:02Z</time>
      </trkpt>
      <trkpt lat="45.87323" lon="2.89407">
        <ele>791</ele>
        <time>2015-10-20T12:07:02Z</time>
      </trkpt>
      <trkpt lat="45.87349" lon="2.89395">
        <ele>788</ele>
        <time>2015-10-20T12:09:02Z</time>
      </trkpt>
      <trkpt lat="45.87373" lon="2.89365">
        <ele>784</ele>
        <time>2015-10-20T12:11:02Z</time>
      </trkpt>
      <trkpt lat="45.87411" lon="2.8936">
        <ele>783</ele>
        <time>2015-10-20T12:13:02Z</time>
      </trkpt>
      <trkpt lat="45.87436" lon="2.89354">
        <ele>781</ele>
        <time>2015-10-20T12:15:02Z</time>
      </trkpt>
      <trkpt lat="45.87461" lon="2.89343">
        <ele>780</ele>
        <time>2015-10-20T12:17:02Z</time>
      </trkpt>
      <trkpt lat="45.875" lon="2.89321">
        <ele>776</ele>
        <time>2015-10-20T12:19:02Z</time>
      </trkpt>
      <trkpt lat="45.87546" lon="2.89314">
        <ele>775</ele>
        <time>2015-10-20T12:21:02Z</time>
      </trkpt>
      <trkpt lat="45.8758" lon="2.89323">
        <ele>775</ele>
        <time>2015-10-20T12:23:02Z</time>
      </trkpt>
      <trkpt lat="45.87611" lon="2.89337">
        <ele>776</ele>
        <time>2015-10-20T12:25:02Z</time>
      </trkpt>
      <trkpt lat="45.87641" lon="2.89335">
        <ele>776</ele>
        <time>2015-10-20T12:27:02Z</time>
      </trkpt>
      <trkpt lat="45.87672" lon="2.8933">
        <ele>776</ele>
        <time>2015-10-20T12:29:02Z</time>
      </trkpt>
      <trkpt lat="45.87714" lon="2.89318">
        <ele>777</ele>
        <time>2015-10-20T12:31:02Z</time>
      </trkpt>
      <trkpt lat="45.87756" lon="2.89321">
        <ele>779</ele>
        <time>2015-10-20T12:33:02Z</time>
      </trkpt>
      <trkpt lat="45.87756" lon="2.89278">
        <ele>777</ele>
        <time>2015-10-20T12:35:02Z</time>
      </trkpt>
      <trkpt lat="45.87764" lon="2.892">
        <ele>775</ele>
        <time>2015-10-20T12:37:02Z</time>
      </trkpt>
      <trkpt lat="45.87746" lon="2.89168">
        <ele>773</ele>
        <time>2015-10-20T12:39:02Z</time>
      </trkpt>
      <trkpt lat="45.87736" lon="2.89153">
        <ele>772</ele>
        <time>2015-10-20T12:41:02Z</time>
      </trkpt>
      <trkpt lat="45.8773" lon="2.89113">
        <ele>772</ele>
        <time>2015-10-20T12:43:02Z</time>
      </trkpt>
      <trkpt lat="45.87711" lon="2.89102">
        <ele>771</ele>
        <time>2015-10-20T12:45:02Z</time>
      </trkpt>
      <trkpt lat="45.87694" lon="2.89065">
        <ele>770</ele>
        <time>2015-10-20T12:47:02Z</time>
      </trkpt>
      <trkpt lat="45.87667" lon="2.88987">
        <ele>767</ele>
        <time>2015-10-20T12:49:02Z</time>
      </trkpt>
      <trkpt lat="45.87653" lon="2.88929">
        <ele>765</ele>
        <time>2015-10-20T12:51:02Z</time>
      </trkpt>
      <trkpt lat="45.87662" lon="2.88896">
        <ele>765</ele>
        <time>2015-10-20T12:53:02Z</time>
      </trkpt>
      <trkpt lat="45.87674" lon="2.88876">
        <ele>765</ele>
        <time>2015-10-20T12:55:02Z</time>
      </trkpt>
      <trkpt lat="45.87679" lon="2.88838">
        <ele>765</ele>
        <time>2015-10-20T12:57:02Z</time>
      </trkpt>
      <trkpt lat="45.87686" lon="2.88799">
        <ele>765</ele>
        <time>2015-10-20T12:59:02Z</time>
      </trkpt>
      <trkpt lat="45.87685" lon="2.8875">
        <ele>765</ele>
        <time>2015-10-20T13:01:02Z</time>
      </trkpt>
      <trkpt lat="45.87697" lon="2.88705">
        <ele>764</ele>
        <time>2015-10-20T13:03:02Z</time>
      </trkpt>
      <trkpt lat="45.8774" lon="2.8863">
        <ele>765</ele>
        <time>2015-10-20T13:05:02Z</time>
      </trkpt>
      <trkpt lat="45.87759" lon="2.88569">
        <ele>767</ele>
        <time>2015-10-20T13:07:02Z</time>
      </trkpt>
      <trkpt lat="45.8778" lon="2.88511">
        <ele>770</ele>
        <time>2015-10-20T13:09:02Z</time>
      </trkpt>
      <trkpt lat="45.87786" lon="2.8848">
        <ele>771</ele>
        <time>2015-10-20T13:11:02Z</time>
      </trkpt>
      <trkpt lat="45.87782" lon="2.88355">
        <ele>772</ele>
        <time>2015-10-20T13:13:02Z</time>
      </trkpt>
      <trkpt lat="45.87782" lon="2.88304">
        <ele>772</ele>
        <time>2015-10-20T13:15:02Z</time>
      </trkpt>
      <trkpt lat="45.87828" lon="2.88323">
        <ele>776</ele>
        <time>2015-10-20T13:17:02Z</time>
      </trkpt>
      <trkpt lat="45.87864" lon="2.88345">
        <ele>781</ele>
        <time>2015-10-20T13:19:02Z</time>
      </trkpt>
      <trkpt lat="45.87925" lon="2.8837">
        <ele>790</ele>
        <time>2015-10-20T13:21:02Z</time>
      </trkpt>
      <trkpt lat="45.87948" lon="2.88376">
        <ele>792</ele>
        <time>2015-10-20T13:23:02Z</time>
      </trkpt>
      <trkpt lat="45.87998" lon="2.8842">
        <ele>801</ele>
        <time>2015-10-20T13:25:02Z</time>
      </trkpt>
      <trkpt lat="45.88051" lon="2.88432">
        <ele>805</ele>
        <time>2015-10-20T13:27:02Z</time>
      </trkpt>
      <trkpt lat="45.88093" lon="2.88441">
        <ele>809</ele>
        <time>2015-10-20T13:29:02Z</time>
      </trkpt>
      <trkpt lat="45.8815" lon="2.88438">
        <ele>815</ele>
        <time>2015-10-20T13:31:02Z</time>
      </trkpt>
      <trkpt lat="45.88169" lon="2.88441">
        <ele>817</ele>
        <time>2015-10-20T13:33:02Z</time>
      </trkpt>
      <trkpt lat="45.88191" lon="2.88468">
        <ele>821</ele>
        <time>2015-10-20T13:35:02Z</time>
      </trkpt>
      <trkpt lat="45.8821" lon="2.88489">
        <ele>826</ele>
        <time>2015-10-20T13:37:02Z</time>
      </trkpt>
      <trkpt lat="45.8824" lon="2.88334">
        <ele>816</ele>
        <time>2015-10-20T13:39:02Z</time>
      </trkpt>
      <trkpt lat="45.88258" lon="2.88256">
        <ele>813</ele>
        <time>2015-10-20T13:41:02Z</time>
      </trkpt>
      <trkpt lat="45.88287" lon="2.88243">
        <ele>816</ele>
        <time>2015-10-20T13:43:02Z</time>
      </trkpt>
      <trkpt lat="45.88305" lon="2.88233">
        <ele>818</ele>
        <time>2015-10-20T13:45:02Z</time>
      </trkpt>
      <trkpt lat="45.88315" lon="2.88222">
        <ele>819</ele>
        <time>2015-10-20T13:47:02Z</time>
      </trkpt>
      <trkpt lat="45.88333" lon="2.88218">
        <ele>822</ele>
        <time>2015-10-20T13:49:02Z</time>
      </trkpt>
      <trkpt lat="45.8835" lon="2.88166">
        <ele>825</ele>
        <time>2015-10-20T13:51:02Z</time>
      </trkpt>
      <trkpt lat="45.88359" lon="2.88085">
        <ele>830</ele>
        <time>2015-10-20T13:53:02Z</time>
      </trkpt>
      <trkpt lat="45.88358" lon="2.88056">
        <ele>831</ele>
        <time>2015-10-20T13:55:02Z</time>
      </trkpt>
      <trkpt lat="45.88345" lon="2.88019">
        <ele>828</ele>
        <time>2015-10-20T13:57:02Z</time>
      </trkpt>
      <trkpt lat="45.88326" lon="2.87949">
        <ele>824</ele>
        <time>2015-10-20T13:59:02Z</time>
      </trkpt>
      <trkpt lat="45.88314" lon="2.87886">
        <ele>819</ele>
        <time>2015-10-20T14:01:02Z</time>
      </trkpt>
      <trkpt lat="45.88305" lon="2.87834">
        <ele>813</ele>
        <time>2015-10-20T14:03:02Z</time>
      </trkpt>
      <trkpt lat="45.88328" lon="2.87715">
        <ele>812</ele>
        <time>2015-10-20T14:05:02Z</time>
      </trkpt>
      <trkpt lat="45.88338" lon="2.87674">
        <ele>813</ele>
        <time>2015-10-20T14:07:02Z</time>
      </trkpt>
      <trkpt lat="45.88355" lon="2.87669">
        <ele>814</ele>
        <time>2015-10-20T14:09:02Z</time>
      </trkpt>
      <trkpt lat="45.88376" lon="2.87654">
        <ele>815</ele>
        <time>2015-10-20T14:11:02Z</time>
      </trkpt>
      <trkpt lat="45.8839" lon="2.87643">
        <ele>816</ele>
        <time>2015-10-20T14:13:02Z</time>
      </trkpt>
      <trkpt lat="45.88403" lon="2.87628">
        <ele>816</ele>
        <time>2015-10-20T14:15:02Z</time>
      </trkpt>
      <trkpt lat="45.88423" lon="2.87609">
        <ele>815</ele>
        <time>2015-10-20T14:17:02Z</time>
      </trkpt>
      <trkpt lat="45.88443" lon="2.8761">
        <ele>815</ele>
        <time>2015-10-20T14:19:02Z</time>
      </trkpt>
      <trkpt lat="45.8847" lon="2.87616">
        <ele>815</ele>
        <time>2015-10-20T14:21:02Z</time>
      </trkpt>
      <trkpt lat="45.88491" lon="2.87629">
        <ele>817</ele>
        <time>2015-10-20T14:23:02Z</time>
      </trkpt>
      <trkpt lat="45.88559" lon="2.87632">
        <ele>816</ele>
        <time>2015-10-20T14:25:02Z</time>
      </trkpt>
      <trkpt lat="45.88561" lon="2.87581">
        <ele>808</ele>
        <time>2015-10-20T14:27:02Z</time>
      </trkpt>
      <trkpt lat="45.88573" lon="2.87549">
        <ele>804</ele>
        <time>2015-10-20T14:29:02Z</time>
      </trkpt>
      <trkpt lat="45.88581" lon="2.87526">
        <ele>802</ele>
        <time>2015-10-20T14:31:02Z</time>
      </trkpt>
      <trkpt lat="45.88585" lon="2.8751">
        <ele>800</ele>
        <time>2015-10-20T14:33:02Z</time>
      </trkpt>
      <trkpt lat="45.88588" lon="2.87472">
        <ele>797</ele>
        <time>2015-10-20T14:35:02Z</time>
      </trkpt>
      <trkpt lat="45.88588" lon="2.87447">
        <ele>795</ele>
        <time>2015-10-20T14:37:02Z</time>
      </trkpt>
      <trkpt lat="45.88579" lon="2.87436">
        <ele>794</ele>
        <time>2015-10-20T14:39:02Z</time>
      </trkpt>
      <trkpt lat="45.88558" lon="2.87422">
        <ele>794</ele>
        <time>2015-10-20T14:41:02Z</time>
      </trkpt>
      <trkpt lat="45.88534" lon="2.87412">
        <ele>795</ele>
        <time>2015-10-20T14:43:02Z</time>
      </trkpt>
      <trkpt lat="45.88516" lon="2.87403">
        <ele>795</ele>
        <time>2015-10-20T14:45:02Z</time>
      </trkpt>
      <trkpt lat="45.88494" lon="2.87378">
        <ele>793</ele>
        <time>2015-10-20T14:47:02Z</time>
      </trkpt>
      <trkpt lat="45.8847" lon="2.87348">
        <ele>791</ele>
        <time>2015-10-20T14:49:02Z</time>
      </trkpt>
      <trkpt lat="45.88442" lon="2.87324">
        <ele>789</ele>
        <time>2015-10-20T14:51:02Z</time>
      </trkpt>
      <trkpt lat="45.88417" lon="2.87302">
        <ele>788</ele>
        <time>2015-10-20T14:53:02Z</time>
      </trkpt>
      <trkpt lat="45.88402" lon="2.87282">
        <ele>786</ele>
        <time>2015-10-20T14:55:02Z</time>
      </trkpt>
      <trkpt lat="45.88373" lon="2.87227">
        <ele>782</ele>
        <time>2015-10-20T14:57:02Z</time>
      </trkpt>
      <trkpt lat="45.88345" lon="2.87177">
        <ele>781</ele>
        <time>2015-10-20T14:59:02Z</time>
      </trkpt>
      <trkpt lat="45.88335" lon="2.87141">
        <ele>779</ele>
        <time>2015-10-20T15:01:02Z</time>
      </trkpt>
      <trkpt lat="45.88296" lon="2.87091">
        <ele>775</ele>
        <time>2015-10-20T15:03:02Z</time>
      </trkpt>
      <trkpt lat="45.88278" lon="2.87064">
        <ele>773</ele>
        <time>2015-10-20T15:05:02Z</time>
      </trkpt>
      <trkpt lat="45.88252" lon="2.8701">
        <ele>769</ele>
        <time>2015-10-20T15:07:02Z</time>
      </trkpt>
      <trkpt lat="45.88219" lon="2.86937">
        <ele>763</ele>
        <time>2015-10-20T15:09:02Z</time>
      </trkpt>
      <trkpt lat="45.88203" lon="2.86907">
        <ele>760</ele>
        <time>2015-10-20T15:11:02Z</time>
      </trkpt>
      <trkpt lat="45.88156" lon="2.86817">
        <ele>750</ele>
        <time>2015-10-20T15:13:02Z</time>
      </trkpt>
      <trkpt lat="45.88149" lon="2.86788">
        <ele>747</ele>
        <time>2015-10-20T15:15:02Z</time>
      </trkpt>
      <trkpt lat="45.88152" lon="2.86727">
        <ele>744</ele>
        <time>2015-10-20T15:17:02Z</time>
      </trkpt>
      <trkpt lat="45.88128" lon="2.86712">
        <ele>745</ele>
        <time>2015-10-20T15:19:02Z</time>
      </trkpt>
      <trkpt lat="45.88103" lon="2.86714">
        <ele>746</ele>
        <time>2015-10-20T15:21:02Z</time>
      </trkpt>
      <trkpt lat="45.88066" lon="2.86713">
        <ele>749</ele>
        <time>2015-10-20T15:23:02Z</time>
      </trkpt>
      <trkpt lat="45.88051" lon="2.86724">
        <ele>750</ele>
        <time>2015-10-20T15:25:02Z</time>
      </trkpt>
      <trkpt lat="45.88039" lon="2.8676">
        <ele>750</ele>
        <time>2015-10-20T15:27:02Z</time>
      </trkpt>
      <trkpt lat="45.88013" lon="2.86769">
        <ele>754</ele>
        <time>2015-10-20T15:29:02Z</time>
      </trkpt>
      <trkpt lat="45.87975" lon="2.86749">
        <ele>758</ele>
        <time>2015-10-20T15:31:02Z</time>
      </trkpt>
      <trkpt lat="45.8792" lon="2.86716">
        <ele>765</ele>
        <time>2015-10-20T15:33:02Z</time>
      </trkpt>
      <trkpt lat="45.87821" lon="2.86668">
        <ele>776</ele>
        <time>2015-10-20T15:35:02Z</time>
      </trkpt>
      <trkpt lat="45.87792" lon="2.86647">
        <ele>780</ele>
        <time>2015-10-20T15:37:02Z</time>
      </trkpt>
      <trkpt lat="45.8775" lon="2.86586">
        <ele>788</ele>
        <time>2015-10-20T15:39:02Z</time>
      </trkpt>
      <trkpt lat="45.87649" lon="2.86479">
        <ele>802</ele>
        <time>2015-10-20T15:41:02Z</time>
      </trkpt>
      <trkpt lat="45.87608" lon="2.8644">
        <ele>807</ele>
        <time>2015-10-20T15:43:02Z</time>
      </trkpt>
      <trkpt lat="45.87585" lon="2.86429">
        <ele>809</ele>
        <time>2015-10-20T15:45:02Z</time>
      </trkpt>
      <trkpt lat="45.87558" lon="2.86405">
        <ele>811</ele>
        <time>2015-10-20T15:47:02Z</time>
      </trkpt>
      <trkpt lat="45.87511" lon="2.86364">
        <ele>813</ele>
        <time>2015-10-20T15:49:02Z</time>
      </trkpt>
      <trkpt lat="45.8748" lon="2.86338">
        <ele>815</ele>
        <time>2015-10-20T15:51:02Z</time>
      </trkpt>
      <trkpt lat="45.87452" lon="2.86298">
        <ele>816</ele>
        <time>2015-10-20T15:53:02Z</time>
      </trkpt>
      <trkpt lat="45.87425" lon="2.86281">
        <ele>819</ele>
        <time>2015-10-20T15:55:02Z</time>
      </trkpt>
      <trkpt lat="45.87406" lon="2.86281">
        <ele>820</ele>
        <time>2015-10-20T15:57:02Z</time>
      </trkpt>
      <trkpt lat="45.8733" lon="2.86297">
        <ele>823</ele>
        <time>2015-10-20T15:59:02Z</time>
      </trkpt>
      <trkpt lat="45.87259" lon="2.86307">
        <ele>824</ele>
        <time>2015-10-20T16:01:02Z</time>
      </trkpt>
      <trkpt lat="45.87235" lon="2.86298">
        <ele>823</ele>
        <time>2015-10-20T16:03:02Z</time>
      </trkpt>
      <trkpt lat="45.87207" lon="2.86227">
        <ele>820</ele>
        <time>2015-10-20T16:05:02Z</time>
      </trkpt>
      <trkpt lat="45.87216" lon="2.86204">
        <ele>820</ele>
        <time>2015-10-20T16:07:02Z</time>
      </trkpt>
      <trkpt lat="45.87222" lon="2.86144">
        <ele>818</ele>
        <time>2015-10-20T16:09:02Z</time>
      </trkpt>
      <trkpt lat="45.87216" lon="2.86069">
        <ele>815</ele>
        <time>2015-10-20T16:11:02Z</time>
      </trkpt>
      <trkpt lat="45.87213" lon="2.86028">
        <ele>812</ele>
        <time>2015-10-20T16:13:02Z</time>
      </trkpt>
      <trkpt lat="45.87236" lon="2.8594">
        <ele>810</ele>
        <time>2015-10-20T16:15:02Z</time>
      </trkpt>
      <trkpt lat="45.87243" lon="2.85909">
        <ele>809</ele>
        <time>2015-10-20T16:17:02Z</time>
      </trkpt>
      <trkpt lat="45.87204" lon="2.85874">
        <ele>806</ele>
        <time>2015-10-20T16:19:02Z</time>
      </trkpt>
      <trkpt lat="45.87192" lon="2.85854">
        <ele>804</ele>
        <time>2015-10-20T16:21:02Z</time>
      </trkpt>
      <trkpt lat="45.87182" lon="2.85806">
        <ele>802</ele>
        <time>2015-10-20T16:23:02Z</time>
      </trkpt>
      <trkpt lat="45.87179" lon="2.85783">
        <ele>801</ele>
        <time>2015-10-20T16:25:02Z</time>
      </trkpt>
      <trkpt lat="45.87173" lon="2.85755">
        <ele>799</ele>
        <time>2015-10-20T16:27:02Z</time>
      </trkpt>
      <trkpt lat="45.8717" lon="2.8574">
        <ele>798</ele>
        <time>2015-10-20T16:29:02Z</time>
      </trkpt>
      <trkpt lat="45.87177" lon="2.85702">
        <ele>797</ele>
        <time>2015-10-20T16:31:02Z</time>
      </trkpt>
      <trkpt lat="45.87187" lon="2.8566">
        <ele>796</ele>
        <time>2015-10-20T16:33:02Z</time>
      </trkpt>
      <trkpt lat="45.87183" lon="2.8564">
        <ele>794</ele>
        <time>2015-10-20T16:35:02Z</time>
      </trkpt>
      <trkpt lat="45.87167" lon="2.85615">
        <ele>792</ele>
        <time>2015-10-20T16:37:02Z</time>
      </trkpt>
      <trkpt lat="45.87156" lon="2.85592">
        <ele>788</ele>
        <time>2015-10-20T16:39:02Z</time>
      </trkpt>
      <trkpt lat="45.8717" lon="2.8555">
        <ele>786</ele>
        <time>2015-10-20T16:41:02Z</time>
      </trkpt>
      <trkpt lat="45.87144" lon="2.85533">
        <ele>779</ele>
        <time>2015-10-20T16:43:02Z</time>
      </trkpt>
      <trkpt lat="45.87124" lon="2.8553">
        <ele>775</ele>
        <time>2015-10-20T16:45:02Z</time>
      </trkpt>
      <trkpt lat="45.87102" lon="2.85539">
        <ele>772</ele>
        <time>2015-10-20T16:47:02Z</time>
      </trkpt>
      <trkpt lat="45.87068" lon="2.85565">
        <ele>766</ele>
        <time>2015-10-20T16:49:02Z</time>
      </trkpt>
      <trkpt lat="45.87062" lon="2.85614">
        <ele>767</ele>
        <time>2015-10-20T16:51:02Z</time>
      </trkpt>
      <trkpt lat="45.87029" lon="2.85688">
        <ele>767</ele>
        <time>2015-10-20T16:53:02Z</time>
      </trkpt>
      <trkpt lat="45.87012" lon="2.85727">
        <ele>767</ele>
        <time>2015-10-20T16:55:02Z</time>
      </trkpt>
      <trkpt lat="45.8699" lon="2.85764">
        <ele>768</ele>
        <time>2015-10-20T16:57:02Z</time>
      </trkpt>
      <trkpt lat="45.8695" lon="2.85788">
        <ele>765</ele>
        <time>2015-10-20T16:59:02Z</time>
      </trkpt>
      <trkpt lat="45.86916" lon="2.85785">
        <ele>760</ele>
        <time>2015-10-20T17:01:02Z</time>
      </trkpt>
      <trkpt lat="45.86893" lon="2.8577">
        <ele>761</ele>
        <time>2015-10-20T17:03:02Z</time>
      </trkpt>
      <trkpt lat="45.86871" lon="2.85762">
        <ele>762</ele>
        <time>2015-10-20T17:05:02Z</time>
      </trkpt>
      <trkpt lat="45.8683" lon="2.8576">
        <ele>766</ele>
        <time>2015-10-20T17:07:02Z</time>
      </trkpt>
      <trkpt lat="45.86808" lon="2.85751">
        <ele>767</ele>
        <time>2015-10-20T17:09:02Z</time>
      </trkpt>
      <trkpt lat="45.86809" lon="2.8572">
        <ele>764</ele>
        <time>2015-10-20T17:11:02Z</time>
      </trkpt>
      <trkpt lat="45.86839" lon="2.85714">
        <ele>761</ele>
        <time>2015-10-20T17:13:02Z</time>
      </trkpt>
      <trkpt lat="45.86888" lon="2.85683">
        <ele>751</ele>
        <time>2015-10-20T17:15:02Z</time>
      </trkpt>
      <trkpt lat="45.86915" lon="2.8569">
        <ele>748</ele>
        <time>2015-10-20T17:17:02Z</time>
      </trkpt>
      <trkpt lat="45.86927" lon="2.85673">
        <ele>747</ele>
        <time>2015-10-20T17:19:02Z</time>
      </trkpt>
      <trkpt lat="45.86947" lon="2.85601">
        <ele>741</ele>
        <time>2015-10-20T17:21:02Z</time>
      </trkpt>
      <trkpt lat="45.86951" lon="2.85576">
        <ele>738</ele>
        <time>2015-10-20T17:23:02Z</time>
      </trkpt>
      <trkpt lat="45.86937" lon="2.85508">
        <ele>730</ele>
        <time>2015-10-20T17:25:02Z</time>
      </trkpt>
      <trkpt lat="45.86933" lon="2.85481">
        <ele>726</ele>
        <time>2015-10-20T17:27:02Z</time>
      </trkpt>
      <trkpt lat="45.86941" lon="2.85452">
        <ele>725</ele>
        <time>2015-10-20T17:29:02Z</time>
      </trkpt>
      <trkpt lat="45.86941" lon="2.85429">
        <ele>723</ele>
        <time>2015-10-20T17:31:02Z</time>
      </trkpt>
      <trkpt lat="45.86942" lon="2.85398">
        <ele>721</ele>
        <time>2015-10-20T17:33:02Z</time>
      </trkpt>
      <trkpt lat="45.86938" lon="2.85381">
        <ele>720</ele>
        <time>2015-10-20T17:35:02Z</time>
      </trkpt>
      <trkpt lat="45.86932" lon="2.85363">
        <ele>717</ele>
        <time>2015-10-20T17:37:02Z</time>
      </trkpt>
      <trkpt lat="45.86936" lon="2.85325">
        <ele>717</ele>
        <time>2015-10-20T17:39:02Z</time>
      </trkpt>
      <trkpt lat="45.86927" lon="2.8526">
        <ele>713</ele>
        <time>2015-10-20T17:41:02Z</time>
      </trkpt>
      <trkpt lat="45.86917" lon="2.85228">
        <ele>709</ele>
        <time>2015-10-20T17:43:02Z</time>
      </trkpt>
      <trkpt lat="45.86906" lon="2.85187">
        <ele>704</ele>
        <time>2015-10-20T17:45:02Z</time>
      </trkpt>
      <trkpt lat="45.86891" lon="2.85154">
        <ele>698</ele>
        <time>2015-10-20T17:47:02Z</time>
      </trkpt>
      <trkpt lat="45.86882" lon="2.85133">
        <ele>694</ele>
        <time>2015-10-20T17:49:02Z</time>
      </trkpt>
      <trkpt lat="45.8687" lon="2.85108">
        <ele>690</ele>
        <time>2015-10-20T17:51:02Z</time>
      </trkpt>
      <trkpt lat="45.8685" lon="2.85021">
        <ele>681</ele>
        <time>2015-10-20T17:53:02Z</time>
      </trkpt>
      <trkpt lat="45.86844" lon="2.84981">
        <ele>679</ele>
        <time>2015-10-20T17:55:02Z</time>
      </trkpt>
      <trkpt lat="45.86842" lon="2.84962">
        <ele>678</ele>
        <time>2015-10-20T17:57:02Z</time>
      </trkpt>
      <trkpt lat="45.86854" lon="2.8495">
        <ele>678</ele>
        <time>2015-10-20T17:59:02Z</time>
      </trkpt>
      <trkpt lat="45.86872" lon="2.8496">
        <ele>681</ele>
        <time>2015-10-20T18:01:02Z</time>
      </trkpt>
      <trkpt lat="45.86893" lon="2.84986">
        <ele>686</ele>
        <time>2015-10-20T18:03:02Z</time>
      </trkpt>
      <trkpt lat="45.86909" lon="2.85005">
        <ele>691</ele>
        <time>2015-10-20T18:05:02Z</time>
      </trkpt>
      <trkpt lat="45.86922" lon="2.85018">
        <ele>695</ele>
        <time>2015-10-20T18:07:02Z</time>
      </trkpt>
      <trkpt lat="45.86933" lon="2.8502">
        <ele>697</ele>
        <time>2015-10-20T18:09:02Z</time>
      </trkpt>
      <trkpt lat="45.8694" lon="2.85005">
        <ele>696</ele>
        <time>2015-10-20T18:11:02Z</time>
      </trkpt>
      <trkpt lat="45.86939" lon="2.8499">
        <ele>693</ele>
        <time>2015-10-20T18:13:02Z</time>
      </trkpt>
      <trkpt lat="45.86935" lon="2.84963">
        <ele>689</ele>
        <time>2015-10-20T18:15:02Z</time>
      </trkpt>
      <trkpt lat="45.86942" lon="2.84923">
        <ele>684</ele>
        <time>2015-10-20T18:17:02Z</time>
      </trkpt>
      <trkpt lat="45.8695" lon="2.84884">
        <ele>680</ele>
        <time>2015-10-20T18:19:02Z</time>
      </trkpt>
      <trkpt lat="45.86957" lon="2.8484">
        <ele>675</ele>
        <time>2015-10-20T18:21:02Z</time>
      </trkpt>
      <trkpt lat="45.86958" lon="2.84812">
        <ele>670</ele>
        <time>2015-10-20T18:23:02Z</time>
      </trkpt>
      <trkpt lat="45.8695" lon="2.84775">
        <ele>663</ele>
        <time>2015-10-20T18:25:02Z</time>
      </trkpt>
      <trkpt lat="45.8694" lon="2.84741">
        <ele>656</ele>
        <time>2015-10-20T18:27:02Z</time>
      </trkpt>
      <trkpt lat="45.86935" lon="2.84668">
        <ele>644</ele>
        <time>2015-10-20T18:29:02Z</time>
      </trkpt>
      <trkpt lat="45.8692" lon="2.84644">
        <ele>639</ele>
        <time>2015-10-20T18:31:02Z</time>
      </trkpt>
      <trkpt lat="45.86895" lon="2.8462">
        <ele>632</ele>
        <time>2015-10-20T18:33:02Z</time>
      </trkpt>
      <trkpt lat="45.86883" lon="2.8461">
        <ele>629</ele>
        <time>2015-10-20T18:35:02Z</time>
      </trkpt>
      <trkpt lat="45.86882" lon="2.84588">
        <ele>624</ele>
        <time>2015-10-20T18:37:02Z</time>
      </trkpt>
      <trkpt lat="45.86872" lon="2.84578">
        <ele>622</ele>
        <time>2015-10-20T18:39:02Z</time>
      </trkpt>
      <trkpt lat="45.86853" lon="2.84565">
        <ele>618</ele>
        <time>2015-10-20T18:41:02Z</time>
      </trkpt>
      <trkpt lat="45.86852" lon="2.84551">
        <ele>616</ele>
        <time>2015-10-20T18:43:02Z</time>
      </trkpt>
      <trkpt lat="45.86861" lon="2.84539">
        <ele>616</ele>
        <time>2015-10-20T18:45:02Z</time>
      </trkpt>
      <trkpt lat="45.8688" lon="2.84545">
        <ele>619</ele>
        <time>2015-10-20T18:47:02Z</time>
      </trkpt>
      <trkpt lat="45.86896" lon="2.84559">
        <ele>623</ele>
        <time>2015-10-20T18:49:02Z</time>
      </trkpt>
      <trkpt lat="45.86907" lon="2.84563">
        <ele>624</ele>
        <time>2015-10-20T18:51:02Z</time>
      </trkpt>
      <trkpt lat="45.86919" lon="2.84555">
        <ele>625</ele>
        <time>2015-10-20T18:53:02Z</time>
      </trkpt>
      <trkpt lat="45.86926" lon="2.84536">
        <ele>626</ele>
        <time>2015-10-20T18:55:02Z</time>
      </trkpt>
      <trkpt lat="45.86917" lon="2.84516">
        <ele>622</ele>
        <time>2015-10-20T18:57:02Z</time>
      </trkpt>
      <trkpt lat="45.86888" lon="2.84473">
        <ele>617</ele>
        <time>2015-10-20T18:59:02Z</time>
      </trkpt>
      <trkpt lat="45.86863" lon="2.84431">
        <ele>612</ele>
        <time>2015-10-20T19:01:02Z</time>
      </trkpt>
      <trkpt lat="45.86858" lon="2.8439">
        <ele>611</ele>
        <time>2015-10-20T19:03:02Z</time>
      </trkpt>
      <trkpt lat="45.86863" lon="2.8433">
        <ele>611</ele>
        <time>2015-10-20T19:05:02Z</time>
      </trkpt>
      <trkpt lat="45.86866" lon="2.84298">
        <ele>610</ele>
        <time>2015-10-20T19:07:02Z</time>
      </trkpt>
      <trkpt lat="45.86842" lon="2.84295">
        <ele>604</ele>
        <time>2015-10-20T19:09:02Z</time>
      </trkpt>
      <trkpt lat="45.8681" lon="2.84283">
        <ele>598</ele>
        <time>2015-10-20T19:11:02Z</time>
      </trkpt>
      <trkpt lat="45.8679" lon="2.84276">
        <ele>594</ele>
        <time>2015-10-20T19:13:02Z</time>
      </trkpt>
      <trkpt lat="45.86769" lon="2.8425">
        <ele>589</ele>
        <time>2015-10-20T19:15:02Z</time>
      </trkpt>
      <trkpt lat="45.86746" lon="2.84246">
        <ele>586</ele>
        <time>2015-10-20T19:17:02Z</time>
      </trkpt>
      <trkpt lat="45.86728" lon="2.84246">
        <ele>588</ele>
        <time>2015-10-20T19:19:02Z</time>
      </trkpt>
      <trkpt lat="45.86722" lon="2.84221">
        <ele>589</ele>
        <time>2015-10-20T19:21:02Z</time>
      </trkpt>
      <trkpt lat="45.86724" lon="2.84169">
        <ele>590</ele>
        <time>2015-10-20T19:23:02Z</time>
      </trkpt>
      <trkpt lat="45.86729" lon="2.84139">
        <ele>589</ele>
        <time>2015-10-20T19:25:02Z</time>
      </trkpt>
      <trkpt lat="45.86739" lon="2.84124">
        <ele>588</ele>
        <time>2015-10-20T19:27:02Z</time>
      </trkpt>
      <trkpt lat="45.86748" lon="2.84104">
        <ele>586</ele>
        <time>2015-10-20T19:29:02Z</time>
      </trkpt>
      <trkpt lat="45.86735" lon="2.84098">
        <ele>588</ele>
        <time>2015-10-20T19:31:02Z</time>
      </trkpt>
      <trkpt lat="45.86711" lon="2.84094">
        <ele>592</ele>
        <time>2015-10-20T19:33:02Z</time>
      </trkpt>
      <trkpt lat="45.8669" lon="2.84085">
        <ele>595</ele>
        <time>2015-10-20T19:35:02Z</time>
      </trkpt>
      <trkpt lat="45.86675" lon="2.84037">
        <ele>595</ele>
        <time>2015-10-20T19:37:02Z</time>
      </trkpt>
      <trkpt lat="45.86663" lon="2.83997">
        <ele>594</ele>
        <time>2015-10-20T19:39:02Z</time>
      </trkpt>
      <trkpt lat="45.8666" lon="2.83952">
        <ele>592</ele>
        <time>2015-10-20T19:41:02Z</time>
      </trkpt>
      <trkpt lat="45.86656" lon="2.83921">
        <ele>590</ele>
        <time>2015-10-20T19:43:02Z</time>
      </trkpt>
      <trkpt lat="45.86596" lon="2.83896">
        <ele>594</ele>
        <time>2015-10-20T19:45:02Z</time>
      </trkpt>
      <trkpt lat="45.86567" lon="2.83907">
        <ele>596</ele>
        <time>2015-10-20T19:47:02Z</time>
      </trkpt>
      <trkpt lat="45.86523" lon="2.83926">
        <ele>599</ele>
        <time>2015-10-20T19:49:02Z</time>
      </trkpt>
      <trkpt lat="45.86448" lon="2.83952">
        <ele>607</ele>
        <time>2015-10-20T19:51:02Z</time>
      </trkpt>
      <trkpt lat="45.86414" lon="2.83959">
        <ele>609</ele>
        <time>2015-10-20T19:53:02Z</time>
      </trkpt>
      <trkpt lat="45.86391" lon="2.83972">
        <ele>614</ele>
        <time>2015-10-20T19:55:02Z</time>
      </trkpt>
      <trkpt lat="45.86356" lon="2.8397">
        <ele>615</ele>
        <time>2015-10-20T19:57:02Z</time>
      </trkpt>
      <trkpt lat="45.86312" lon="2.83961">
        <ele>619</ele>
        <time>2015-10-20T19:59:02Z</time>
      </trkpt>
      <trkpt lat="45.86297" lon="2.83946">
        <ele>619</ele>
        <time>2015-10-20T20:01:02Z</time>
      </trkpt>
      <trkpt lat="45.86287" lon="2.83919">
        <ele>615</ele>
        <time>2015-10-20T20:03:02Z</time>
      </trkpt>
      <trkpt lat="45.86263" lon="2.8387">
        <ele>612</ele>
        <time>2015-10-20T20:05:02Z</time>
      </trkpt>
      <trkpt lat="45.86244" lon="2.83839">
        <ele>611</ele>
        <time>2015-10-20T20:07:02Z</time>
      </trkpt>
      <trkpt lat="45.86229" lon="2.83799">
        <ele>612</ele>
        <time>2015-10-20T20:09:02Z</time>
      </trkpt>
      <trkpt lat="45.8622" lon="2.83753">
        <ele>611</ele>
        <time>2015-10-20T20:11:02Z</time>
      </trkpt>
      <trkpt lat="45.86197" lon="2.83739">
        <ele>617</ele>
        <time>2015-10-20T20:13:02Z</time>
      </trkpt>
      <trkpt lat="45.86205" lon="2.83718">
        <ele>615</ele>
        <time>2015-10-20T20:15:02Z</time>
      </trkpt>
      <trkpt lat="45.86209" lon="2.83696">
        <ele>615</ele>
        <time>2015-10-20T20:17:02Z</time>
      </trkpt>
      <trkpt lat="45.862" lon="2.83661">
        <ele>617</ele>
        <time>2015-10-20T20:19:02Z</time>
      </trkpt>
      <trkpt lat="45.86202" lon="2.83626">
        <ele>618</ele>
        <time>2015-10-20T20:21:02Z</time>
      </trkpt>
      <trkpt lat="45.86208" lon="2.83584">
        <ele>619</ele>
        <time>2015-10-20T20:23:02Z</time>
      </trkpt>
      <trkpt lat="45.862" lon="2.83528">
        <ele>626</ele>
        <time>2015-10-20T20:25:02Z</time>
      </trkpt>
      <trkpt lat="45.862" lon="2.83495">
        <ele>629</ele>
        <time>2015-10-20T20:27:02Z</time>
      </trkpt>
      <trkpt lat="45.86201" lon="2.83421">
        <ele>640</ele>
        <time>2015-10-20T20:29:02Z</time>
      </trkpt>
      <trkpt lat="45.86193" lon="2.83391">
        <ele>642</ele>
        <time>2015-10-20T20:31:02Z</time>
      </trkpt>
      <trkpt lat="45.86187" lon="2.83364">
        <ele>644</ele>
        <time>2015-10-20T20:33:02Z</time>
      </trkpt>
      <trkpt lat="45.86201" lon="2.83364">
        <ele>644</ele>
        <time>2015-10-20T20:35:02Z</time>
      </trkpt>
      <trkpt lat="45.86217" lon="2.83338">
        <ele>644</ele>
        <time>2015-10-20T20:37:02Z</time>
      </trkpt>
      <trkpt lat="45.8623" lon="2.83334">
        <ele>644</ele>
        <time>2015-10-20T20:39:02Z</time>
      </trkpt>
      <trkpt lat="45.86225" lon="2.83303">
        <ele>644</ele>
        <time>2015-10-20T20:41:02Z</time>
      </trkpt>
      <trkpt lat="45.86216" lon="2.83268">
        <ele>644</ele>
        <time>2015-10-20T20:43:02Z</time>
      </trkpt>
      <trkpt lat="45.86228" lon="2.83257">
        <ele>644</ele>
        <time>2015-10-20T20:45:02Z</time>
      </trkpt>
      <trkpt lat="45.86215" lon="2.83235">
        <ele>645</ele>
        <time>2015-10-20T20:47:02Z</time>
      </trkpt>
      <trkpt lat="45.86198" lon="2.83231">
        <ele>646</ele>
        <time>2015-10-20T20:49:02Z</time>
      </trkpt>
      <trkpt lat="45.86189" lon="2.83216">
        <ele>646</ele>
        <time>2015-10-20T20:51:02Z</time>
      </trkpt>
      <trkpt lat="45.86191" lon="2.83169">
        <ele>646</ele>
        <time>2015-10-20T20:53:02Z</time>
      </trkpt>
      <trkpt lat="45.86205" lon="2.83093">
        <ele>649</ele>
        <time>2015-10-20T20:55:02Z</time>
      </trkpt>
      <trkpt lat="45.86228" lon="2.83019">
        <ele>654</ele>
        <time>2015-10-20T20:57:02Z</time>
      </trkpt>
      <trkpt lat="45.86148" lon="2.82981">
        <ele>653</ele>
        <time>2015-10-20T20:59:02Z</time>
      </trkpt>
      <trkpt lat="45.86102" lon="2.82946">
        <ele>657</ele>
        <time>2015-10-20T21:01:02Z</time>
      </trkpt>
      <trkpt lat="45.8609" lon="2.82928">
        <ele>658</ele>
        <time>2015-10-20T21:03:02Z</time>
      </trkpt>
      <trkpt lat="45.86101" lon="2.82923">
        <ele>658</ele>
        <time>2015-10-20T21:05:02Z</time>
      </trkpt>
      <trkpt lat="45.86115" lon="2.82889">
        <ele>661</ele>
        <time>2015-10-20T21:07:02Z</time>
      </trkpt>
      <trkpt lat="45.86125" lon="2.82862">
        <ele>665</ele>
        <time>2015-10-20T21:09:02Z</time>
      </trkpt>
      <trkpt lat="45.86158" lon="2.8283">
        <ele>671</ele>
        <time>2015-10-20T21:11:02Z</time>
      </trkpt>
      <trkpt lat="45.86196" lon="2.82799">
        <ele>675</ele>
        <time>2015-10-20T21:13:02Z</time>
      </trkpt>
      <trkpt lat="45.86223" lon="2.82764">
        <ele>680</ele>
        <time>2015-10-20T21:15:02Z</time>
      </trkpt>
      <trkpt lat="45.86265" lon="2.82715">
        <ele>683</ele>
        <time>2015-10-20T21:17:02Z</time>
      </trkpt>
      <trkpt lat="45.8629" lon="2.82679">
        <ele>682</ele>
        <time>2015-10-20T21:19:02Z</time>
      </trkpt>
      <trkpt lat="45.86309" lon="2.82637">
        <ele>680</ele>
        <time>2015-10-20T21:21:02Z</time>
      </trkpt>
      <trkpt lat="45.86326" lon="2.82595">
        <ele>679</ele>
        <time>2015-10-20T21:23:02Z</time>
      </trkpt>
      <trkpt lat="45.86344" lon="2.82533">
        <ele>682</ele>
        <time>2015-10-20T21:25:02Z</time>
      </trkpt>
      <trkpt lat="45.86367" lon="2.82503">
        <ele>680</ele>
        <time>2015-10-20T21:27:02Z</time>
      </trkpt>
      <trkpt lat="45.86395" lon="2.82495">
        <ele>674</ele>
        <time>2015-10-20T21:29:02Z</time>
      </trkpt>
      <trkpt lat="45.86422" lon="2.82445">
        <ele>672</ele>
        <time>2015-10-20T21:31:02Z</time>
      </trkpt>
      <trkpt lat="45.8643" lon="2.82416">
        <ele>672</ele>
        <time>2015-10-20T21:33:02Z</time>
      </trkpt>
      <trkpt lat="45.86441" lon="2.82362">
        <ele>669</ele>
        <time>2015-10-20T21:35:02Z</time>
      </trkpt>
      <trkpt lat="45.86496" lon="2.824">
        <ele>658</ele>
        <time>2015-10-20T21:37:02Z</time>
      </trkpt>
      <trkpt lat="45.86556" lon="2.82452">
        <ele>652</ele>
        <time>2015-10-20T21:39:02Z</time>
      </trkpt>
      <trkpt lat="45.86593" lon="2.82499">
        <ele>648</ele>
        <time>2015-10-20T21:41:02Z</time>
      </trkpt>
      <trkpt lat="45.86631" lon="2.82481">
        <ele>646</ele>
        <time>2015-10-20T21:43:02Z</time>
      </trkpt>
      <trkpt lat="45.86684" lon="2.82507">
        <ele>643</ele>
        <time>2015-10-20T21:45:02Z</time>
      </trkpt>
      <trkpt lat="45.86708" lon="2.82517">
        <ele>642</ele>
        <time>2015-10-20T21:47:02Z</time>
      </trkpt>
      <trkpt lat="45.86753" lon="2.82498">
        <ele>637</ele>
        <time>2015-10-20T21:49:02Z</time>
      </trkpt>
      <trkpt lat="45.86805" lon="2.82489">
        <ele>632</ele>
        <time>2015-10-20T21:51:02Z</time>
      </trkpt>
      <trkpt lat="45.86856" lon="2.82479">
        <ele>627</ele>
        <time>2015-10-20T21:53:02Z</time>
      </trkpt>
      <trkpt lat="45.86863" lon="2.8246">
        <ele>625</ele>
        <time>2015-10-20T21:55:02Z</time>
      </trkpt>
      <trkpt lat="45.86863" lon="2.82432">
        <ele>622</ele>
        <time>2015-10-20T21:57:02Z</time>
      </trkpt>
      <trkpt lat="45.86852" lon="2.82333">
        <ele>620</ele>
        <time>2015-10-20T21:59:02Z</time>
      </trkpt>
      <trkpt lat="45.86827" lon="2.82292">
        <ele>621</ele>
        <time>2015-10-20T22:01:02Z</time>
      </trkpt>
      <trkpt lat="45.86796" lon="2.82251">
        <ele>620</ele>
        <time>2015-10-20T22:03:02Z</time>
      </trkpt>
      <trkpt lat="45.86778" lon="2.82212">
        <ele>618</ele>
        <time>2015-10-20T22:05:02Z</time>
      </trkpt>
      <trkpt lat="45.86771" lon="2.82145">
        <ele>614</ele>
        <time>2015-10-20T22:07:02Z</time>
      </trkpt>
      <trkpt lat="45.86778" lon="2.82118">
        <ele>613</ele>
        <time>2015-10-20T22:09:02Z</time>
      </trkpt>
      <trkpt lat="45.86797" lon="2.82103">
        <ele>611</ele>
        <time>2015-10-20T22:11:02Z</time>
      </trkpt>
      <trkpt lat="45.86848" lon="2.82104">
        <ele>610</ele>
        <time>2015-10-20T22:13:02Z</time>
      </trkpt>
      <trkpt lat="45.86883" lon="2.82107">
        <ele>611</ele>
        <time>2015-10-20T22:15:02Z</time>
      </trkpt>
      <trkpt lat="45.86906" lon="2.82095">
        <ele>612</ele>
        <time>2015-10-20T22:17:02Z</time>
      </trkpt>
      <trkpt lat="45.86924" lon="2.82065">
        <ele>613</ele>
        <time>2015-10-20T22:19:02Z</time>
      </trkpt>
      <trkpt lat="45.86926" lon="2.82042">
        <ele>614</ele>
        <time>2015-10-20T22:21:02Z</time>
      </trkpt>
      <trkpt lat="45.86911" lon="2.82051">
        <ele>616</ele>
        <time>2015-10-20T22:23:02Z</time>
      </trkpt>
      <trkpt lat="45.86886" lon="2.82059">
        <ele>614</ele>
        <time>2015-10-20T22:25:02Z</time>
      </trkpt>
      <trkpt lat="45.86867" lon="2.82045">
        <ele>614</ele>
        <time>2015-10-20T22:27:02Z</time>
      </trkpt>
      <trkpt lat="45.86844" lon="2.82014">
        <ele>616</ele>
        <time>2015-10-20T22:29:02Z</time>
      </trkpt>
      <trkpt lat="45.86855" lon="2.82009">
        <ele>617</ele>
        <time>2015-10-20T22:31:02Z</time>
      </trkpt>
      <trkpt lat="45.86876" lon="2.82032">
        <ele>616</ele>
        <time>2015-10-20T22:33:02Z</time>
      </trkpt>
      <trkpt lat="45.8689" lon="2.82045">
        <ele>615</ele>
        <time>2015-10-20T22:35:02Z</time>
      </trkpt>
      <trkpt lat="45.869" lon="2.82047">
        <ele>616</ele>
        <time>2015-10-20T22:37:02Z</time>
      </trkpt>
      <trkpt lat="45.86909" lon="2.82034">
        <ele>617</ele>
        <time>2015-10-20T22:39:02Z</time>
      </trkpt>
      <trkpt lat="45.86897" lon="2.82017">
        <ele>618</ele>
        <time>2015-10-20T22:41:02Z</time>
      </trkpt>
      <trkpt lat="45.86878" lon="2.81966">
        <ele>623</ele>
        <time>2015-10-20T22:43:02Z</time>
      </trkpt>
      <trkpt lat="45.86847" lon="2.81888">
        <ele>635</ele>
        <time>2015-10-20T22:45:02Z</time>
      </trkpt>
      <trkpt lat="45.86831" lon="2.81834">
        <ele>646</ele>
        <time>2015-10-20T22:47:02Z</time>
      </trkpt>
      <trkpt lat="45.86817" lon="2.81759">
        <ele>657</ele>
        <time>2015-10-20T22:49:02Z</time>
      </trkpt>
      <trkpt lat="45.86806" lon="2.81686">
        <ele>667</ele>
        <time>2015-10-20T22:51:02Z</time>
      </trkpt>
      <trkpt lat="45.86798" lon="2.81609">
        <ele>678</ele>
        <time>2015-10-20T22:53:02Z</time>
      </trkpt>
      <trkpt lat="45.86787" lon="2.81556">
        <ele>685</ele>
        <time>2015-10-20T22:55:02Z</time>
      </trkpt>
      <trkpt lat="45.86723" lon="2.81457">
        <ele>705</ele>
        <time>2015-10-20T22:57:02Z</time>
      </trkpt>
      <trkpt lat="45.86613" lon="2.8128">
        <ele>711</ele>
        <time>2015-10-20T22:59:02Z</time>
      </trkpt>
      <trkpt lat="45.86575" lon="2.812">
        <ele>711</ele>
        <time>2015-10-20T23:01:02Z</time>
      </trkpt>
      <trkpt lat="45.86559" lon="2.81146">
        <ele>712</ele>
        <time>2015-10-20T23:03:02Z</time>
      </trkpt>
      <trkpt lat="45.86556" lon="2.81085">
        <ele>716</ele>
        <time>2015-10-20T23:05:02Z</time>
      </trkpt>
      <trkpt lat="45.86545" lon="2.80987">
        <ele>721</ele>
        <time>2015-10-20T23:07:02Z</time>
      </trkpt>
      <trkpt lat="45.86569" lon="2.80814">
        <ele>729</ele>
        <time>2015-10-20T23:09:02Z</time>
      </trkpt>
      <trkpt lat="45.8659" lon="2.80722">
        <ele>730</ele>
        <time>2015-10-20T23:11:02Z</time>
      </trkpt>
      <trkpt lat="45.86628" lon="2.80514">
        <ele>733</ele>
        <time>2015-10-20T23:13:02Z</time>
      </trkpt>
      <trkpt lat="45.86648" lon="2.80395">
        <ele>734</ele>
        <time>2015-10-20T23:15:02Z</time>
      </trkpt>
      <trkpt lat="45.86669" lon="2.80298">
        <ele>734</ele>
        <time>2015-10-20T23:17:02Z</time>
      </trkpt>
      <trkpt lat="45.86694" lon="2.80256">
        <ele>733</ele>
        <time>2015-10-20T23:19:02Z</time>
      </trkpt>
      <trkpt lat="45.86708" lon="2.80244">
        <ele>733</ele>
        <time>2015-10-20T23:21:02Z</time>
      </trkpt>
      <trkpt lat="45.86751" lon="2.80287">
        <ele>731</ele>
        <time>2015-10-20T23:23:02Z</time>
      </trkpt>
      <trkpt lat="45.86793" lon="2.80315">
        <ele>728</ele>
        <time>2015-10-20T23:25:02Z</time>
      </trkpt>
      <trkpt lat="45.8682" lon="2.80326">
        <ele>727</ele>
        <time>2015-10-20T23:27:02Z</time>
      </trkpt>
      <trkpt lat="45.86863" lon="2.8031">
        <ele>726</ele>
        <time>2015-10-20T23:29:02Z</time>
      </trkpt>
      <trkpt lat="45.86905" lon="2.80303">
        <ele>724</ele>
        <time>2015-10-20T23:31:02Z</time>
      </trkpt>
      <trkpt lat="45.86931" lon="2.80296">
        <ele>723</ele>
        <time>2015-10-20T23:33:02Z</time>
      </trkpt>
      <trkpt lat="45.87006" lon="2.80267">
        <ele>720</ele>
        <time>2015-10-20T23:35:02Z</time>
      </trkpt>
      <trkpt lat="45.87004" lon="2.80209">
        <ele>719</ele>
        <time>2015-10-20T23:37:02Z</time>
      </trkpt>
      <trkpt lat="45.87007" lon="2.80146">
        <ele>721</ele>
        <time>2015-10-20T23:39:02Z</time>
      </trkpt>
      <trkpt lat="45.8702" lon="2.80128">
        <ele>722</ele>
        <time>2015-10-20T23:41:02Z</time>
      </trkpt>
      <trkpt lat="45.87041" lon="2.80119">
        <ele>722</ele>
        <time>2015-10-20T23:43:02Z</time>
      </trkpt>
      <trkpt lat="45.87065" lon="2.80109">
        <ele>722</ele>
        <time>2015-10-20T23:45:02Z</time>
      </trkpt>
      <trkpt lat="45.87077" lon="2.80051">
        <ele>726</ele>
        <time>2015-10-20T23:47:02Z</time>
      </trkpt>
      <trkpt lat="45.87071" lon="2.80012">
        <ele>729</ele>
        <time>2015-10-20T23:49:02Z</time>
      </trkpt>
      <trkpt lat="45.87062" lon="2.79981">
        <ele>730</ele>
        <time>2015-10-20T23:51:02Z</time>
      </trkpt>
      <trkpt lat="45.87086" lon="2.79959">
        <ele>729</ele>
        <time>2015-10-20T23:53:02Z</time>
      </trkpt>
      <trkpt lat="45.87103" lon="2.79922">
        <ele>729</ele>
        <time>2015-10-20T23:55:02Z</time>
      </trkpt>
      <trkpt lat="45.87125" lon="2.79886">
        <ele>728</ele>
        <time>2015-10-20T23:57:02Z</time>
      </trkpt>
      <trkpt lat="45.87161" lon="2.79838">
        <ele>728</ele>
        <time>2015-10-20T23:59:02Z</time>
      </trkpt>
      <trkpt lat="45.87231" lon="2.79811">
        <ele>729</ele>
        <time>2015-10-21T00:01:02Z</time>
      </trkpt>
      <trkpt lat="45.87289" lon="2.79784">
        <ele>723</ele>
        <time>2015-10-21T00:03:02Z</time>
      </trkpt>
      <trkpt lat="45.87316" lon="2.79757">
        <ele>718</ele>
        <time>2015-10-21T00:05:02Z</time>
      </trkpt>
      <trkpt lat="45.87337" lon="2.79748">
        <ele>715</ele>
        <time>2015-10-21T00:07:02Z</time>
      </trkpt>
      <trkpt lat="45.87381" lon="2.79795">
        <ele>714</ele>
        <time>2015-10-21T00:09:02Z</time>
      </trkpt>
      <trkpt lat="45.87404" lon="2.79808">
        <ele>711</ele>
        <time>2015-10-21T00:11:02Z</time>
      </trkpt>
      <trkpt lat="45.87431" lon="2.79826">
        <ele>710</ele>
        <time>2015-10-21T00:13:02Z</time>
      </trkpt>
      <trkpt lat="45.87446" lon="2.79875">
        <ele>708</ele>
        <time>2015-10-21T00:15:02Z</time>
      </trkpt>
      <trkpt lat="45.87471" lon="2.79953">
        <ele>705</ele>
        <time>2015-10-21T00:17:02Z</time>
      </trkpt>
      <trkpt lat="45.87485" lon="2.79989">
        <ele>703</ele>
        <time>2015-10-21T00:19:02Z</time>
      </trkpt>
      <trkpt lat="45.87473" lon="2.80055">
        <ele>703</ele>
        <time>2015-10-21T00:21:02Z</time>
      </trkpt>
      <trkpt lat="45.87467" lon="2.8011">
        <ele>703</ele>
        <time>2015-10-21T00:23:02Z</time>
      </trkpt>
      <trkpt lat="45.87461" lon="2.80182">
        <ele>701</ele>
        <time>2015-10-21T00:25:02Z</time>
      </trkpt>
      <trkpt lat="45.87463" lon="2.80256">
        <ele>697</ele>
        <time>2015-10-21T00:27:02Z</time>
      </trkpt>
      <trkpt lat="45.87465" lon="2.80296">
        <ele>696</ele>
        <time>2015-10-21T00:29:02Z</time>
      </trkpt>
      <trkpt lat="45.87455" lon="2.80344">
        <ele>691</ele>
        <time>2015-10-21T00:31:02Z</time>
      </trkpt>
      <trkpt lat="45.87474" lon="2.80405">
        <ele>690</ele>
        <time>2015-10-21T00:33:02Z</time>
      </trkpt>
      <trkpt lat="45.87528" lon="2.80504">
        <ele>687</ele>
        <time>2015-10-21T00:35:02Z</time>
      </trkpt>
      <trkpt lat="45.87555" lon="2.80548">
        <ele>685</ele>
        <time>2015-10-21T00:37:02Z</time>
      </trkpt>
      <trkpt lat="45.87597" lon="2.80663">
        <ele>671</ele>
        <time>2015-10-21T00:39:02Z</time>
      </trkpt>
      <trkpt lat="45.87614" lon="2.80737">
        <ele>660</ele>
        <time>2015-10-21T00:41:02Z</time>
      </trkpt>
      <trkpt lat="45.87649" lon="2.8084">
        <ele>646</ele>
        <time>2015-10-21T00:43:02Z</time>
      </trkpt>
      <trkpt lat="45.87673" lon="2.80867">
        <ele>642</ele>
        <time>2015-10-21T00:45:02Z</time>
      </trkpt>
      <trkpt lat="45.87724" lon="2.80889">
        <ele>634</ele>
        <time>2015-10-21T00:47:02Z</time>
      </trkpt>
      <trkpt lat="45.87766" lon="2.8088">
        <ele>630</ele>
        <time>2015-10-21T00:49:02Z</time>
      </trkpt>
      <trkpt lat="45.87779" lon="2.80869">
        <ele>628</ele>
        <time>2015-10-21T00:51:02Z</time>
      </trkpt>
      <trkpt lat="45.87812" lon="2.80839">
        <ele>624</ele>
        <time>2015-10-21T00:53:02Z</time>
      </trkpt>
      <trkpt lat="45.87825" lon="2.80826">
        <ele>622</ele>
        <time>2015-10-21T00:55:02Z</time>
      </trkpt>
      <trkpt lat="45.87868" lon="2.80824">
        <ele>608</ele>
        <time>2015-10-21T00:57:02Z</time>
      </trkpt>
      <trkpt lat="45.87893" lon="2.80823">
        <ele>599</ele>
        <time>2015-10-21T00:59:02Z</time>
      </trkpt>
      <trkpt lat="45.87911" lon="2.80796">
        <ele>596</ele>
        <time>2015-10-21T01:01:02Z</time>
      </trkpt>
      <trkpt lat="45.87928" lon="2.80802">
        <ele>590</ele>
        <time>2015-10-21T01:03:02Z</time>
      </trkpt>
      <trkpt lat="45.87952" lon="2.80821">
        <ele>581</ele>
        <time>2015-10-21T01:05:02Z</time>
      </trkpt>
      <trkpt lat="45.8797" lon="2.80832">
        <ele>575</ele>
        <time>2015-10-21T01:07:02Z</time>
      </trkpt>
      <trkpt lat="45.87995" lon="2.80827">
        <ele>569</ele>
        <time>2015-10-21T01:09:02Z</time>
      </trkpt>
      <trkpt lat="45.88021" lon="2.80801">
        <ele>568</ele>
        <time>2015-10-21T01:11:02Z</time>
      </trkpt>
      <trkpt lat="45.88036" lon="2.80795">
        <ele>566</ele>
        <time>2015-10-21T01:13:02Z</time>
      </trkpt>
      <trkpt lat="45.88022" lon="2.80826">
        <ele>566</ele>
        <time>2015-10-21T01:15:02Z</time>
      </trkpt>
      <trkpt lat="45.8801" lon="2.80842">
        <ele>565</ele>
        <time>2015-10-21T01:17:02Z</time>
      </trkpt>
      <trkpt lat="45.88026" lon="2.80889">
        <ele>563</ele>
        <time>2015-10-21T01:19:02Z</time>
      </trkpt>
      <trkpt lat="45.88027" lon="2.8092">
        <ele>563</ele>
        <time>2015-10-21T01:21:02Z</time>
      </trkpt>
      <trkpt lat="45.8801" lon="2.8096">
        <ele>564</ele>
        <time>2015-10-21T01:23:02Z</time>
      </trkpt>
      <trkpt lat="45.88029" lon="2.80959">
        <ele>567</ele>
        <time>2015-10-21T01:25:02Z</time>
      </trkpt>
      <trkpt lat="45.88063" lon="2.80957">
        <ele>571</ele>
        <time>2015-10-21T01:27:02Z</time>
      </trkpt>
      <trkpt lat="45.8807" lon="2.80948">
        <ele>571</ele>
        <time>2015-10-21T01:29:02Z</time>
      </trkpt>
      <trkpt lat="45.8809" lon="2.80976">
        <ele>574</ele>
        <time>2015-10-21T01:31:02Z</time>
      </trkpt>
      <trkpt lat="45.88105" lon="2.80972">
        <ele>571</ele>
        <time>2015-10-21T01:33:02Z</time>
      </trkpt>
    </trkseg>
  </trk>
</gpx>